createdAt,value
2023-03-08T00:00:18.765Z,4.14
2023-03-08T00:02:45.218Z,4.10
2023-03-08T00:05:11.731Z,4.12
2023-03-08T00:07:38.189Z,4.14
2023-03-08T00:10:05.125Z,4.17
2023-03-08T00:12:31.593Z,4.21
2023-03-08T00:14:58.187Z,4.25
2023-03-08T00:17:24.757Z,4.22
2023-03-08T00:19:51.646Z,4.24
2023-03-08T00:22:18.073Z,4.21
2023-03-08T00:24:44.577Z,4.20
2023-03-08T00:27:11.054Z,4.20
2023-03-08T00:29:37.582Z,4.22
2023-03-08T00:32:04.106Z,4.21
2023-03-08T00:34:30.567Z,4.23
2023-03-08T00:36:57.026Z,4.18
2023-03-08T00:39:23.455Z,4.14
2023-03-08T00:41:49.876Z,4.19
2023-03-08T00:44:16.368Z,4.24
2023-03-08T00:46:42.850Z,4.23
2023-03-08T00:49:09.742Z,4.22
2023-03-08T00:51:36.211Z,4.22
2023-03-08T00:54:02.729Z,4.22
2023-03-08T00:56:29.179Z,4.26
2023-03-08T00:58:55.637Z,4.27
2023-03-08T01:01:22.192Z,4.19
2023-03-08T01:03:48.808Z,4.25
2023-03-08T01:06:16.017Z,4.24
2023-03-08T01:08:42.741Z,4.28
2023-03-08T01:11:15.337Z,4.30
2023-03-08T01:13:41.779Z,4.28
2023-03-08T01:16:14.935Z,4.28
2023-03-08T01:18:41.361Z,4.31
2023-03-08T01:21:07.817Z,4.35
2023-03-08T01:23:34.271Z,4.34
2023-03-08T01:26:01.758Z,4.35
2023-03-08T01:28:28.613Z,4.35
2023-03-08T01:30:55.189Z,4.31
2023-03-08T01:33:21.749Z,4.21
2023-03-08T01:35:48.555Z,4.15
2023-03-08T01:38:15.052Z,4.04
2023-03-08T01:40:41.525Z,4.03
2023-03-08T01:43:17.445Z,4.07
2023-03-08T01:45:56.342Z,4.10
2023-03-08T01:48:24.204Z,4.12
2023-03-08T01:50:50.646Z,4.12
2023-03-08T01:53:17.257Z,4.16
2023-03-08T01:55:43.705Z,4.20
2023-03-08T01:58:10.657Z,4.22
2023-03-08T02:00:38.086Z,4.23
2023-03-08T02:03:05.877Z,4.24
2023-03-08T02:05:32.535Z,4.23
2023-03-08T02:07:59.053Z,4.23
2023-03-08T02:10:25.651Z,4.23
2023-03-08T02:12:52.196Z,4.21
2023-03-08T02:15:20.267Z,4.20
2023-03-08T02:17:47.096Z,4.15
2023-03-08T02:20:28.963Z,4.06
2023-03-08T02:22:55.394Z,4.05
2023-03-08T02:25:23.365Z,3.96
2023-03-08T02:27:50.619Z,3.96
2023-03-08T02:30:18.283Z,3.96
2023-03-08T02:32:44.890Z,3.97
2023-03-08T02:35:11.364Z,3.95
2023-03-08T02:37:37.828Z,3.91
2023-03-08T02:40:04.568Z,3.88
2023-03-08T02:42:31.050Z,3.82
2023-03-08T02:44:57.699Z,3.76
2023-03-08T02:47:24.139Z,3.71
2023-03-08T02:49:50.597Z,3.67
2023-03-08T02:52:17.286Z,3.62
2023-03-08T02:54:43.769Z,3.55
2023-03-08T02:57:10.419Z,3.52
2023-03-08T02:59:36.963Z,3.48
2023-03-08T03:02:06.509Z,3.42
2023-03-08T03:04:33.991Z,3.39
2023-03-08T03:07:00.892Z,3.37
2023-03-08T03:09:27.937Z,3.34
2023-03-08T03:11:54.375Z,3.32
2023-03-08T03:14:20.846Z,3.30
2023-03-08T03:16:47.578Z,3.33
2023-03-08T03:19:14.130Z,3.31
2023-03-08T03:21:41.706Z,3.26
2023-03-08T03:24:08.196Z,3.22
2023-03-08T03:26:34.760Z,3.18
2023-03-08T03:29:01.358Z,3.13
2023-03-08T03:31:28.015Z,3.03
2023-03-08T03:33:54.715Z,3.02
2023-03-08T03:36:21.777Z,3.00
2023-03-08T03:38:49.078Z,3.03
2023-03-08T03:41:16.579Z,2.99
2023-03-08T03:43:43.140Z,2.93
2023-03-08T03:46:12.360Z,2.85
2023-03-08T03:48:38.962Z,2.84
2023-03-08T03:51:13.196Z,2.83
2023-03-08T03:53:39.886Z,2.82
2023-03-08T03:56:08.023Z,2.81
2023-03-08T03:58:34.954Z,2.80
2023-03-08T04:01:01.579Z,2.77
2023-03-08T04:03:28.131Z,2.71
2023-03-08T04:05:54.811Z,2.53
2023-03-08T04:08:21.257Z,2.53
2023-03-08T04:10:47.737Z,2.48
2023-03-08T04:13:14.278Z,2.47
2023-03-08T04:15:40.909Z,2.42
2023-03-08T04:18:07.427Z,2.49
2023-03-08T04:20:33.869Z,2.46
2023-03-08T04:23:00.330Z,2.38
2023-03-08T04:25:26.750Z,2.43
2023-03-08T04:27:53.224Z,2.47
2023-03-08T04:30:19.725Z,2.43
2023-03-08T04:32:46.187Z,2.38
2023-03-08T04:35:12.751Z,2.33
2023-03-08T04:37:40.237Z,2.37
2023-03-08T04:40:09.422Z,2.40
2023-03-08T04:42:35.992Z,2.31
2023-03-08T04:45:02.510Z,2.28
2023-03-08T04:47:29.062Z,2.32
2023-03-08T04:49:55.515Z,2.38
2023-03-08T04:52:21.957Z,2.40
2023-03-08T04:54:48.429Z,2.39
2023-03-08T04:57:14.864Z,2.31
2023-03-08T04:59:43.209Z,2.27
2023-03-08T05:02:09.715Z,2.34
2023-03-08T05:04:36.239Z,2.56
2023-03-08T05:07:02.772Z,2.74
2023-03-08T05:09:29.192Z,2.87
2023-03-08T05:11:55.659Z,2.95
2023-03-08T05:14:22.166Z,3.09
2023-03-08T05:16:48.587Z,3.21
2023-03-08T05:19:15.079Z,3.31
2023-03-08T05:21:41.619Z,3.34
2023-03-08T05:24:08.069Z,3.36
2023-03-08T05:26:34.560Z,3.40
2023-03-08T05:29:03.487Z,3.42
2023-03-08T05:31:29.946Z,3.44
2023-03-08T05:33:56.379Z,3.47
2023-03-08T05:36:22.852Z,3.54
2023-03-08T05:38:52.895Z,3.54
2023-03-08T05:41:19.320Z,3.56
2023-03-08T05:43:45.765Z,3.53
2023-03-08T05:46:13.301Z,3.52
2023-03-08T05:48:39.841Z,3.49
2023-03-08T05:51:06.936Z,3.50
2023-03-08T05:53:33.464Z,3.54
2023-03-08T05:56:10.614Z,3.58
2023-03-08T05:58:37.239Z,3.57
2023-03-08T06:01:11.200Z,3.60
2023-03-08T06:03:37.856Z,3.66
2023-03-08T06:06:04.745Z,3.72
2023-03-08T06:08:31.385Z,3.75
2023-03-08T06:10:57.859Z,3.80
2023-03-08T06:13:24.344Z,3.86
2023-03-08T06:15:53.858Z,3.89
2023-03-08T06:18:20.316Z,3.96
2023-03-08T06:20:55.421Z,4.00
2023-03-08T06:23:21.849Z,4.04
2023-03-08T06:25:48.365Z,4.08
2023-03-08T06:28:14.924Z,4.12
2023-03-08T06:30:41.432Z,4.12
2023-03-08T06:33:07.951Z,4.15
2023-03-08T06:35:34.755Z,4.18
2023-03-08T06:38:01.219Z,4.23
2023-03-08T06:40:27.643Z,4.22
2023-03-08T06:42:54.222Z,4.27
2023-03-08T06:45:20.710Z,4.27
2023-03-08T06:47:47.183Z,4.29
2023-03-08T06:50:13.693Z,4.31
2023-03-08T06:52:40.256Z,4.34
2023-03-08T06:55:07.152Z,4.35
2023-03-08T06:57:33.646Z,4.41
2023-03-08T07:00:00.182Z,4.41
2023-03-08T07:02:26.657Z,4.44
2023-03-08T07:04:53.131Z,4.48
2023-03-08T07:07:19.651Z,4.52
2023-03-08T07:09:46.216Z,4.54
2023-03-08T07:12:12.696Z,4.55
2023-03-08T07:14:39.196Z,4.53
2023-03-08T07:17:05.659Z,4.53
2023-03-08T07:19:32.120Z,4.60
2023-03-08T07:21:58.600Z,4.65
2023-03-08T07:24:25.029Z,4.66
2023-03-08T07:26:51.485Z,4.72
2023-03-08T07:29:18.463Z,4.77
2023-03-08T07:31:44.948Z,4.78
2023-03-08T07:34:12.013Z,4.82
2023-03-08T07:36:40.417Z,4.89
2023-03-08T07:39:06.924Z,4.94
2023-03-08T07:41:34.759Z,4.98
2023-03-08T07:44:02.541Z,5.05
2023-03-08T07:46:29.314Z,5.09
2023-03-08T07:48:55.904Z,5.19
2023-03-08T07:51:22.566Z,5.30
2023-03-08T07:53:49.060Z,5.35
2023-03-08T07:56:15.559Z,5.43
2023-03-08T07:58:42.163Z,5.51
2023-03-08T08:01:10.109Z,5.55
2023-03-08T08:03:37.850Z,5.62
2023-03-08T08:06:05.329Z,5.69
2023-03-08T08:08:31.985Z,5.74
2023-03-08T08:10:58.557Z,5.79
2023-03-08T08:13:24.984Z,5.83
2023-03-08T08:15:58.966Z,5.85
2023-03-08T08:18:25.424Z,5.89
2023-03-08T08:20:59.226Z,5.89
2023-03-08T08:23:25.662Z,5.95
2023-03-08T08:25:52.085Z,5.98
2023-03-08T08:28:18.575Z,6.04
2023-03-08T08:30:45.029Z,6.04
2023-03-08T08:33:11.493Z,6.09
2023-03-08T08:35:43.388Z,6.19
2023-03-08T08:38:10.024Z,6.23
2023-03-08T08:40:36.973Z,6.23
2023-03-08T08:43:03.415Z,6.31
2023-03-08T08:45:29.881Z,6.40
2023-03-08T08:47:56.408Z,6.47
2023-03-08T08:50:22.827Z,6.53
2023-03-08T08:52:49.296Z,6.58
2023-03-08T08:55:15.811Z,6.58
2023-03-08T08:57:42.255Z,6.63
2023-03-08T09:00:09.963Z,6.65
2023-03-08T09:02:36.897Z,6.66
2023-03-08T09:05:03.875Z,6.69
2023-03-08T09:07:30.364Z,6.66
2023-03-08T09:09:57.301Z,6.66
2023-03-08T09:12:23.763Z,6.64
2023-03-08T09:14:50.236Z,6.63
2023-03-08T09:17:16.672Z,6.66
2023-03-08T09:19:43.129Z,6.75
2023-03-08T09:22:09.599Z,6.82
2023-03-08T09:24:36.033Z,6.90
2023-03-08T09:27:04.888Z,7.00
2023-03-08T09:29:31.323Z,7.06
2023-03-08T09:31:58.834Z,7.13
2023-03-08T09:34:25.477Z,7.24
2023-03-08T09:36:52.286Z,7.26
2023-03-08T09:39:18.749Z,7.24
2023-03-08T09:41:45.280Z,7.16
2023-03-08T09:44:11.749Z,7.17
2023-03-08T09:46:41.887Z,7.21
2023-03-08T09:49:12.636Z,7.18
2023-03-08T09:51:40.918Z,7.16
2023-03-08T09:54:10.608Z,7.19
2023-03-08T09:56:43.688Z,7.20
2023-03-08T09:59:14.685Z,7.17
2023-03-08T10:01:41.255Z,7.16
2023-03-08T10:04:10.860Z,7.15
2023-03-08T10:06:43.689Z,7.18
2023-03-08T10:09:19.449Z,7.24
2023-03-08T10:12:02.574Z,7.24
2023-03-08T10:14:34.644Z,7.30
2023-03-08T10:17:04.823Z,7.41
2023-03-08T10:19:41.277Z,7.53
2023-03-08T10:22:23.051Z,7.64
2023-03-08T10:24:52.421Z,7.68
2023-03-08T10:27:21.132Z,7.73
2023-03-08T10:29:48.403Z,7.82
2023-03-08T10:32:14.921Z,7.85
2023-03-08T10:34:41.758Z,7.90
2023-03-08T10:37:09.854Z,7.91
2023-03-08T10:39:37.282Z,8.01
2023-03-08T10:42:13.608Z,8.07
2023-03-08T10:44:52.297Z,8.08
2023-03-08T10:47:18.712Z,8.06
2023-03-08T10:49:47.288Z,8.07
2023-03-08T10:52:25.521Z,8.10
2023-03-08T10:55:24.259Z,8.09
2023-03-08T10:57:55.473Z,8.06
2023-03-08T11:00:34.359Z,8.10
2023-03-08T11:03:10.063Z,8.11
2023-03-08T11:05:36.932Z,8.13
2023-03-08T11:08:04.275Z,8.18
2023-03-08T11:10:32.355Z,8.19
2023-03-08T11:13:03.029Z,8.21
2023-03-08T11:15:31.000Z,8.18
2023-03-08T11:18:03.497Z,8.22
2023-03-08T11:20:39.252Z,8.26
2023-03-08T11:23:11.812Z,8.31
2023-03-08T11:25:44.345Z,8.34
2023-03-08T11:28:16.830Z,8.36
2023-03-08T11:30:52.420Z,8.35
2023-03-08T11:33:31.760Z,8.40
2023-03-08T11:36:16.798Z,8.46
2023-03-08T11:38:46.585Z,8.46
2023-03-08T11:41:21.137Z,8.44
2023-03-08T11:43:55.291Z,8.45
2023-03-08T11:46:40.533Z,8.51
2023-03-08T11:49:07.027Z,8.57
2023-03-08T11:51:38.557Z,8.54
2023-03-08T11:54:04.989Z,8.54
2023-03-08T11:56:31.719Z,8.54
2023-03-08T11:59:27.658Z,8.52
2023-03-08T12:02:02.621Z,8.50
2023-03-08T12:04:32.526Z,8.55
2023-03-08T12:07:02.166Z,8.63
2023-03-08T12:09:36.197Z,8.71
2023-03-08T12:12:11.523Z,8.76
2023-03-08T12:14:44.688Z,8.87
2023-03-08T12:17:18.062Z,8.98
2023-03-08T12:19:46.106Z,9.06
2023-03-08T12:22:12.505Z,9.09
2023-03-08T12:24:38.945Z,9.16
2023-03-08T12:27:12.787Z,9.30
2023-03-08T12:29:49.894Z,9.45
2023-03-08T12:32:18.034Z,9.52
2023-03-08T12:34:45.905Z,9.63
2023-03-08T12:37:25.967Z,9.63
2023-03-08T12:40:00.521Z,9.65
2023-03-08T12:42:38.227Z,9.63
2023-03-08T12:45:19.916Z,9.65
2023-03-08T12:48:17.663Z,9.65
2023-03-08T12:50:46.462Z,9.73
2023-03-08T12:53:39.185Z,9.84
2023-03-08T12:56:26.640Z,9.88
2023-03-08T12:58:56.382Z,9.98
2023-03-08T13:01:28.969Z,10.03
2023-03-08T13:03:55.802Z,9.99
2023-03-08T13:06:37.603Z,9.97
2023-03-08T13:09:18.706Z,9.94
2023-03-08T13:11:47.970Z,9.94
2023-03-08T13:14:25.314Z,9.96
2023-03-08T13:16:51.839Z,9.99
2023-03-08T13:19:23.224Z,9.95
2023-03-08T13:22:10.021Z,9.93
2023-03-08T13:24:40.982Z,9.84
2023-03-08T13:27:10.482Z,9.82
2023-03-08T13:29:36.974Z,9.81
2023-03-08T13:32:20.329Z,9.85
2023-03-08T13:35:02.981Z,9.84
2023-03-08T13:37:30.067Z,9.87
2023-03-08T13:39:57.787Z,9.90
2023-03-08T13:42:25.557Z,9.91
2023-03-08T13:44:52.495Z,9.96
2023-03-08T13:47:23.856Z,9.91
2023-03-08T13:49:52.127Z,9.88
2023-03-08T13:52:29.429Z,9.82
2023-03-08T13:54:57.638Z,9.80
2023-03-08T13:57:27.133Z,9.88
2023-03-08T13:59:55.251Z,9.93
2023-03-08T14:02:26.499Z,9.93
2023-03-08T14:04:53.741Z,9.92
2023-03-08T14:07:24.574Z,9.79
2023-03-08T14:09:51.130Z,9.72
2023-03-08T14:12:22.012Z,9.78
2023-03-08T14:14:51.490Z,9.76
2023-03-08T14:17:23.597Z,9.66
2023-03-08T14:19:55.240Z,9.65
2023-03-08T14:22:37.678Z,9.67
2023-03-08T14:25:05.830Z,9.67
2023-03-08T14:27:40.939Z,9.66
2023-03-08T14:30:12.353Z,9.52
2023-03-08T14:32:39.651Z,9.40
2023-03-08T14:35:07.929Z,9.39
2023-03-08T14:37:34.985Z,9.33
2023-03-08T14:40:24.280Z,9.27
2023-03-08T14:42:55.846Z,9.24
2023-03-08T14:45:32.560Z,9.21
2023-03-08T14:48:00.257Z,9.26
2023-03-08T14:50:26.821Z,9.24
2023-03-08T14:52:55.006Z,9.17
2023-03-08T14:55:22.049Z,9.14
2023-03-08T14:57:48.622Z,9.21
2023-03-08T15:00:15.991Z,9.13
2023-03-08T15:02:43.515Z,9.06
2023-03-08T15:05:28.041Z,8.99
2023-03-08T15:07:55.881Z,9.04
2023-03-08T15:10:25.607Z,9.09
2023-03-08T15:12:52.098Z,9.10
2023-03-08T15:15:18.642Z,9.07
2023-03-08T15:17:45.111Z,9.01
2023-03-08T15:20:12.423Z,9.01
2023-03-08T15:22:59.584Z,8.99
2023-03-08T15:25:27.512Z,8.96
2023-03-08T15:27:53.952Z,8.91
2023-03-08T15:30:21.746Z,8.84
2023-03-08T15:32:48.696Z,8.81
2023-03-08T15:35:15.531Z,8.70
2023-03-08T15:37:42.644Z,8.69
2023-03-08T15:40:17.328Z,8.71
2023-03-08T15:42:44.073Z,8.63
2023-03-08T15:45:11.934Z,8.58
2023-03-08T15:47:38.670Z,8.44
2023-03-08T15:50:06.940Z,8.43
2023-03-08T15:52:33.400Z,8.41
2023-03-08T15:54:59.848Z,8.41
2023-03-08T15:57:26.311Z,8.36
2023-03-08T15:59:52.842Z,8.26
2023-03-08T16:02:20.196Z,8.22
2023-03-08T16:04:49.106Z,8.13
2023-03-08T16:07:16.441Z,8.14
2023-03-08T16:09:43.134Z,8.05
2023-03-08T16:12:12.510Z,7.98
2023-03-08T16:14:39.037Z,8.01
2023-03-08T16:17:06.370Z,8.01
2023-03-08T16:19:33.846Z,7.97
2023-03-08T16:22:01.331Z,7.98
2023-03-08T16:24:28.016Z,7.96
2023-03-08T16:26:54.573Z,7.95
2023-03-08T16:29:21.562Z,7.95
2023-03-08T16:31:48.686Z,7.86
2023-03-08T16:34:15.818Z,7.84
2023-03-08T16:36:42.432Z,7.78
2023-03-08T16:39:09.289Z,7.64
2023-03-08T16:41:36.597Z,7.59
2023-03-08T16:44:03.493Z,7.51
2023-03-08T16:46:30.123Z,7.44
2023-03-08T16:48:57.175Z,7.42
2023-03-08T16:51:24.987Z,7.48
2023-03-08T16:53:51.690Z,7.50
2023-03-08T16:56:22.363Z,7.49
2023-03-08T16:58:48.880Z,7.43
2023-03-08T17:01:16.606Z,7.47
2023-03-08T17:03:43.264Z,7.40
2023-03-08T17:06:10.926Z,7.44
2023-03-08T17:08:37.575Z,7.45
2023-03-08T17:11:06.189Z,7.35
2023-03-08T17:13:33.091Z,7.28
2023-03-08T17:15:59.575Z,7.26
2023-03-08T17:18:26.194Z,7.28
2023-03-08T17:20:53.060Z,7.27
2023-03-08T17:23:19.898Z,7.24
2023-03-08T17:25:46.503Z,7.26
2023-03-08T17:28:12.977Z,7.27
2023-03-08T17:30:39.583Z,7.23
2023-03-08T17:33:06.031Z,7.22
2023-03-08T17:35:32.618Z,7.19
2023-03-08T17:37:59.218Z,7.13
2023-03-08T17:40:25.694Z,7.14
2023-03-08T17:42:52.233Z,7.19
2023-03-08T17:45:18.836Z,7.14
2023-03-08T17:47:45.384Z,7.21
2023-03-08T17:50:15.209Z,7.23
2023-03-08T17:52:42.029Z,7.16
2023-03-08T17:55:08.812Z,7.17
2023-03-08T17:57:36.055Z,7.15
2023-03-08T18:00:02.682Z,7.18
2023-03-08T18:02:29.179Z,7.22
2023-03-08T18:04:56.618Z,7.21
2023-03-08T18:07:24.925Z,7.20
2023-03-08T18:09:51.359Z,7.12
2023-03-08T18:12:17.818Z,7.13
2023-03-08T18:14:45.385Z,7.08
2023-03-08T18:17:12.379Z,7.10
2023-03-08T18:19:38.914Z,7.13
2023-03-08T18:22:05.730Z,7.14
2023-03-08T18:24:32.240Z,7.16
2023-03-08T18:26:58.722Z,7.17
2023-03-08T18:29:25.207Z,7.13
2023-03-08T18:31:52.966Z,7.10
2023-03-08T18:34:19.463Z,7.13
2023-03-08T18:36:45.958Z,7.11
2023-03-08T18:39:12.936Z,7.06
2023-03-08T18:41:39.738Z,7.08
2023-03-08T18:44:06.485Z,7.12
2023-03-08T18:46:33.582Z,7.09
2023-03-08T18:49:01.436Z,7.09
2023-03-08T18:51:28.521Z,7.09
2023-03-08T18:53:55.964Z,7.02
2023-03-08T18:56:23.276Z,7.00
2023-03-08T18:58:49.796Z,6.95
2023-03-08T19:01:17.211Z,6.93
2023-03-08T19:03:44.546Z,6.93
2023-03-08T19:06:11.955Z,6.89
2023-03-08T19:08:38.836Z,6.93
2023-03-08T19:11:15.829Z,6.89
2023-03-08T19:13:42.888Z,6.88
2023-03-08T19:16:26.193Z,6.90
2023-03-08T19:18:54.104Z,6.86
2023-03-08T19:21:22.625Z,6.82
2023-03-08T19:23:49.632Z,6.81
2023-03-08T19:26:47.623Z,6.80
2023-03-08T19:29:16.012Z,6.72
2023-03-08T19:31:48.752Z,6.60
2023-03-08T19:34:15.330Z,6.64
2023-03-08T19:36:43.235Z,6.67
2023-03-08T19:39:11.126Z,6.70
2023-03-08T19:41:37.641Z,6.69
2023-03-08T19:44:07.214Z,6.70
2023-03-08T19:46:34.409Z,6.66
2023-03-08T19:49:00.905Z,6.62
2023-03-08T19:51:27.428Z,6.57
2023-03-08T19:53:54.098Z,6.61
2023-03-08T19:56:20.971Z,6.53
2023-03-08T19:58:48.062Z,6.38
2023-03-08T20:01:15.899Z,6.33
2023-03-08T20:03:42.872Z,6.25
2023-03-08T20:06:09.935Z,6.19
2023-03-08T20:08:37.242Z,6.22
2023-03-08T20:11:04.532Z,6.19
2023-03-08T20:13:31.069Z,6.17
2023-03-08T20:15:58.249Z,6.19
2023-03-08T20:18:25.858Z,6.23
2023-03-08T20:20:53.278Z,6.20
2023-03-08T20:23:19.755Z,6.27
2023-03-08T20:25:46.312Z,6.22
2023-03-08T20:28:12.905Z,6.13
2023-03-08T20:30:39.463Z,6.11
2023-03-08T20:33:06.053Z,6.05
2023-03-08T20:35:32.559Z,6.01
2023-03-08T20:37:59.072Z,6.02
2023-03-08T20:40:25.525Z,6.03
2023-03-08T20:42:52.243Z,6.05
2023-03-08T20:45:18.812Z,6.01
2023-03-08T20:47:46.611Z,5.93
2023-03-08T20:50:13.072Z,5.89
2023-03-08T20:52:39.515Z,5.89
2023-03-08T20:55:06.152Z,5.82
2023-03-08T20:57:32.719Z,5.70
2023-03-08T20:59:59.186Z,5.74
2023-03-08T21:02:25.732Z,5.80
2023-03-08T21:04:52.239Z,5.71
2023-03-08T21:07:18.726Z,5.69
2023-03-08T21:09:45.206Z,5.69
2023-03-08T21:12:11.782Z,5.66
2023-03-08T21:14:38.301Z,5.67
2023-03-08T21:17:04.771Z,5.62
2023-03-08T21:19:31.238Z,5.64
2023-03-08T21:21:57.742Z,5.64
2023-03-08T21:24:24.316Z,5.59
2023-03-08T21:26:52.020Z,5.58
2023-03-08T21:29:19.722Z,5.60
2023-03-08T21:31:48.559Z,5.62
2023-03-08T21:34:15.185Z,5.60
2023-03-08T21:36:41.970Z,5.56
2023-03-08T21:39:08.490Z,5.53
2023-03-08T21:41:36.616Z,5.46
2023-03-08T21:44:04.742Z,5.47
2023-03-08T21:46:31.626Z,5.44
2023-03-08T21:48:58.230Z,5.38
2023-03-08T21:51:24.706Z,5.25
2023-03-08T21:53:51.156Z,5.28
2023-03-08T21:56:18.270Z,5.23
2023-03-08T21:58:44.762Z,5.34
2023-03-08T22:01:21.834Z,5.34
2023-03-08T22:03:48.795Z,5.31
2023-03-08T22:06:15.302Z,5.22
2023-03-08T22:08:41.757Z,5.21
2023-03-08T22:11:08.265Z,5.18
2023-03-08T22:13:35.122Z,5.13
2023-03-08T22:16:01.765Z,5.08
2023-03-08T22:18:28.290Z,5.00
2023-03-08T22:20:54.884Z,4.87
2023-03-08T22:23:21.655Z,4.79
2023-03-08T22:25:48.093Z,4.65
2023-03-08T22:28:14.580Z,4.60
2023-03-08T22:30:41.128Z,4.66
2023-03-08T22:33:08.029Z,4.70
2023-03-08T22:35:34.716Z,4.66
2023-03-08T22:38:01.333Z,4.67
2023-03-08T22:40:27.826Z,4.64
2023-03-08T22:42:54.249Z,4.47
2023-03-08T22:45:20.665Z,4.38
2023-03-08T22:47:47.135Z,4.43
2023-03-08T22:50:13.755Z,4.38
2023-03-08T22:52:40.311Z,4.34
2023-03-08T22:55:06.971Z,4.33
2023-03-08T22:57:35.627Z,4.29
2023-03-08T23:00:02.210Z,4.37
2023-03-08T23:02:30.457Z,4.38
2023-03-08T23:04:57.958Z,4.36
2023-03-08T23:07:24.426Z,4.39
2023-03-08T23:09:50.975Z,4.34
2023-03-08T23:12:17.432Z,4.32
2023-03-08T23:14:47.113Z,4.31
2023-03-08T23:17:13.590Z,4.28
2023-03-08T23:19:45.015Z,4.17
2023-03-08T23:22:12.342Z,4.11
2023-03-08T23:24:38.856Z,4.07
2023-03-08T23:27:05.749Z,4.06
2023-03-08T23:29:32.234Z,4.16
2023-03-08T23:31:58.721Z,4.17
2023-03-08T23:34:25.292Z,4.09
2023-03-08T23:36:51.781Z,4.04
2023-03-08T23:39:18.249Z,3.99
2023-03-08T23:41:45.345Z,4.03
2023-03-08T23:44:12.249Z,4.06
2023-03-08T23:46:38.728Z,4.08
2023-03-08T23:49:05.387Z,4.12
2023-03-08T23:51:32.469Z,4.14
2023-03-08T23:54:00.179Z,4.14
2023-03-08T23:56:30.034Z,4.13
2023-03-08T23:59:01.400Z,4.15
